Terminal Aerodrome Forecast
Issued by NWS Jackson, MS

Home | Current Version | Previous Version | Text Only | Print | Product List | Glossary On
Versions: 1 2 3 4 5 6 7 8 9 10 11 12 13 14
598
FTUS44 KJAN 182335
TAFHBG
TAF
KHBG 182335Z 1900/1924 13005KT P6SM SKC
     FM190800 16004KT P6SM BKN008 BKN250
     FM191300 15005KT 3SM BR BKN003 BKN250
     FM191500 16008KT P6SM BKN015 BKN250
     FM191700 17010KT P6SM BKN025 BKN250=

USA.gov is the U.S. government's official web portal to all federal, state and local government web resources and services.